Weather at Flugplatz Speck-Fehraltorf

Public forecast

Using degrees Celsius for public forecast. Weather courtesy of forecast.io.

Closest aviation weather report (METAR) to Flugplatz Speck-Fehraltorf

Closest report is Dübendorf Air Base, 4.6 nm (8.6 km) WNW. Retrieved 2021/09/26 12:20 UTC (37 minutes ago):

LSMD 261220Z AUTO 28005KT 240V320 9999NDV -RA FEW040 BKN099 19/14 Q1020 RMK

Closest aviation forecast (TAF) to Flugplatz Speck-Fehraltorf

Closest forecast is Dübendorf Air Base, 4.6 nm (8.6 km) WNW. Retrieved 2021/09/26 10:00 UTC (3 hours ago):

TAF LSMD 260925Z 2610/2716 33003KT 9999 SCT050 TEMPO 2610/2706 SHRA SCT050TCU PROB30 TEMPO 2614/2619 26010KT TSRA SCT040CB PROB40 2702/2709 BKN014 PROB30 2704/2709 1500 BCFG